Time;durP1;ratioP1;P1;durP2;ratioP2;P2;SDS_P1;SDS_P2;PMS_P1;PMS_P2;Temp;Humidity;BMP_temperature;BMP_pressure;BME280_temperature;BME280_humidity;BME280_pressure;Samples;Min_cycle;Max_cycle;Signal;HPM_P1;HPM_P2
2021/11/29 00:00:26;;;;;;;22.60;14.50;;;3.50;99.90;;;;;;5018887;28;20552;-74
2021/11/29 00:02:55;;;;;;;18.13;11.73;;;3.50;99.90;;;;;;5015117;28;20181;-74
2021/11/29 00:05:23;;;;;;;19.43;12.87;;;3.50;99.90;;;;;;5019850;28;20436;-74
2021/11/29 00:07:49;;;;;;;20.00;12.87;;;3.60;99.90;;;;;;5021267;28;20436;-74
2021/11/29 00:10:15;;;;;;;20.90;13.43;;;3.60;99.90;;;;;;5018469;28;20497;-74
2021/11/29 00:12:41;;;;;;;19.37;12.03;;;3.60;99.90;;;;;;5017204;28;20427;-74
2021/11/29 00:15:08;;;;;;;16.77;11.53;;;3.60;99.90;;;;;;5017302;28;20768;-74
2021/11/29 00:17:35;;;;;;;18.17;12.27;;;3.50;99.90;;;;;;5018360;28;20189;-74
2021/11/29 00:20:01;;;;;;;15.20;11.33;;;3.50;99.90;;;;;;5016029;28;20463;-74
2021/11/29 00:22:27;;;;;;;17.60;11.23;;;3.50;99.90;;;;;;5021884;28;20945;-74
2021/11/29 00:24:53;;;;;;;18.27;12.20;;;3.50;99.90;;;;;;5018520;28;20436;-74
2021/11/29 00:27:18;;;;;;;14.00;10.40;;;3.50;99.90;;;;;;5020506;28;20661;-74
2021/11/29 00:29:44;;;;;;;20.00;10.93;;;3.50;99.90;;;;;;5015361;28;20423;-74
2021/11/29 00:32:11;;;;;;;16.03;11.23;;;3.40;99.90;;;;;;5018696;28;20201;-74
2021/11/29 00:34:37;;;;;;;16.90;11.70;;;3.40;99.90;;;;;;5014169;28;20438;-74
2021/11/29 00:37:03;;;;;;;15.70;10.60;;;3.40;99.90;;;;;;5019810;28;20551;-74
2021/11/29 00:39:29;;;;;;;17.17;11.87;;;3.40;99.90;;;;;;5016406;28;20930;-74
2021/11/29 00:41:55;;;;;;;15.80;11.30;;;3.40;99.90;;;;;;5016658;28;20499;-74
2021/11/29 00:44:20;;;;;;;16.80;10.83;;;3.40;99.90;;;;;;5018689;28;20166;-74
2021/11/29 00:46:46;;;;;;;15.73;11.50;;;3.40;99.90;;;;;;5020238;28;20611;-74
2021/11/29 00:49:12;;;;;;;16.50;11.20;;;3.40;99.90;;;;;;5017256;28;20213;-74
2021/11/29 00:51:38;;;;;;;15.13;10.70;;;3.30;99.90;;;;;;5018570;28;20185;-74
2021/11/29 00:54:04;;;;;;;16.07;10.67;;;3.30;99.90;;;;;;5019354;28;20265;-74
2021/11/29 00:56:30;;;;;;;15.17;11.73;;;3.30;99.90;;;;;;5019263;28;20460;-74
2021/11/29 00:58:57;;;;;;;14.00;9.83;;;3.30;99.90;;;;;;5003704;28;20248;-74
2021/11/29 01:01:23;;;;;;;19.17;11.40;;;3.30;99.90;;;;;;5015675;28;20921;-75
2021/11/29 01:03:48;;;;;;;12.27;9.27;;;3.40;99.90;;;;;;5014595;28;20772;-75
2021/11/29 01:06:14;;;;;;;13.60;10.30;;;3.30;99.90;;;;;;5016034;28;20428;-75
2021/11/29 01:08:41;;;;;;;15.67;11.00;;;3.30;99.90;;;;;;5017356;28;20670;-74
2021/11/29 01:11:08;;;;;;;16.03;10.50;;;3.40;99.90;;;;;;5018500;28;20190;-74
2021/11/29 01:13:35;;;;;;;14.67;10.43;;;3.40;99.90;;;;;;5019005;28;20449;-74
2021/11/29 01:16:01;;;;;;;14.80;10.77;;;3.40;99.90;;;;;;5019530;28;20438;-74
2021/11/29 01:18:27;;;;;;;14.83;10.77;;;3.40;99.90;;;;;;5017831;28;20501;-74
2021/11/29 01:20:52;;;;;;;15.33;11.17;;;3.40;99.90;;;;;;5017522;28;20459;-74
2021/11/29 01:23:19;;;;;;;18.67;12.87;;;3.50;99.90;;;;;;5021062;28;20188;-74
2021/11/29 01:25:45;;;;;;;15.80;11.17;;;3.50;99.90;;;;;;5019525;28;20182;-74
2021/11/29 01:28:11;;;;;;;17.07;10.50;;;3.50;99.90;;;;;;5018846;28;20832;-74
2021/11/29 01:30:38;;;;;;;14.20;10.43;;;3.50;99.90;;;;;;5017082;28;20518;-74
2021/11/29 01:33:05;;;;;;;21.60;12.67;;;3.50;99.90;;;;;;5017605;28;20991;-74
2021/11/29 01:35:32;;;;;;;19.47;12.13;;;3.50;99.90;;;;;;5017407;28;20602;-74
2021/11/29 01:37:58;;;;;;;16.97;11.90;;;3.50;99.90;;;;;;5019554;28;20504;-74
2021/11/29 01:40:24;;;;;;;16.60;10.33;;;3.50;99.90;;;;;;5017028;28;20458;-74
2021/11/29 01:43:11;;;;;;;19.70;12.13;;;3.50;99.90;;;;;;5020200;28;20434;-74
2021/11/29 01:45:41;;;;;;;16.47;11.13;;;3.40;99.90;;;;;;5019746;28;20430;-74
2021/11/29 01:48:09;;;;;;;19.90;11.70;;;3.40;99.90;;;;;;5017337;28;20435;-73
2021/11/29 01:50:37;;;;;;;23.20;12.97;;;3.40;99.90;;;;;;5017756;28;20433;-73
2021/11/29 01:53:03;;;;;;;27.10;14.13;;;3.40;99.90;;;;;;5018390;28;20913;-73
2021/11/29 01:55:29;;;;;;;27.23;15.10;;;3.40;99.90;;;;;;5021610;28;20543;-73
2021/11/29 01:57:55;;;;;;;29.77;15.43;;;3.40;99.90;;;;;;5025698;28;20432;-74
2021/11/29 02:00:28;;;;;;;29.20;15.03;;;3.40;99.90;;;;;;5019641;28;20460;-74
2021/11/29 02:02:55;;;;;;;29.97;14.50;;;3.40;99.90;;;;;;5023793;28;20527;-74
2021/11/29 02:05:22;;;;;;;24.57;14.80;;;3.40;99.90;;;;;;5018969;28;20435;-74
2021/11/29 02:07:48;;;;;;;26.27;14.47;;;3.40;99.90;;;;;;5019978;28;20769;-74
2021/11/29 02:10:16;;;;;;;28.60;15.00;;;3.40;99.90;;;;;;5023315;28;20520;-74
2021/11/29 02:12:42;;;;;;;29.73;15.20;;;3.40;99.90;;;;;;5026110;28;20447;-74
2021/11/29 02:15:11;;;;;;;25.63;15.07;;;3.40;99.90;;;;;;5021717;28;20461;-74
2021/11/29 02:17:38;;;;;;;24.37;15.70;;;3.40;99.90;;;;;;5021157;28;20262;-74
2021/11/29 02:20:05;;;;;;;26.53;16.13;;;3.40;99.90;;;;;;5020580;28;20565;-74
2021/11/29 02:22:31;;;;;;;30.60;17.10;;;3.40;99.90;;;;;;5022124;28;20437;-74
2021/11/29 02:24:57;;;;;;;27.10;16.17;;;3.50;99.90;;;;;;5022496;28;20432;-75
2021/11/29 02:27:23;;;;;;;29.77;15.20;;;3.50;99.90;;;;;;5023485;28;20212;-74
2021/11/29 02:29:52;;;;;;;28.33;16.53;;;3.50;99.90;;;;;;5018134;28;20468;-74
2021/11/29 02:32:18;;;;;;;25.53;15.10;;;3.50;99.90;;;;;;5022395;28;20263;-74
2021/11/29 02:34:44;;;;;;;27.60;17.57;;;3.50;99.90;;;;;;5016032;28;20539;-74
2021/11/29 02:37:09;;;;;;;29.30;15.90;;;3.50;99.90;;;;;;5023661;28;20180;-74
2021/11/29 02:39:35;;;;;;;32.30;16.73;;;3.50;99.90;;;;;;5021944;28;20189;-74
2021/11/29 02:42:06;;;;;;;27.87;15.33;;;3.50;99.90;;;;;;5021136;28;20211;-73
2021/11/29 02:44:33;;;;;;;30.53;15.40;;;3.50;99.90;;;;;;5024474;28;20413;-74
2021/11/29 02:46:59;;;;;;;34.73;16.93;;;3.50;99.90;;;;;;5023258;28;20466;-74
2021/11/29 02:49:25;;;;;;;28.97;15.23;;;3.50;99.90;;;;;;5020573;28;20901;-73
2021/11/29 02:51:54;;;;;;;29.47;15.23;;;3.50;99.90;;;;;;5021211;28;20523;-74
2021/11/29 02:54:24;;;;;;;31.17;17.23;;;3.50;99.90;;;;;;5025129;28;20274;-74
2021/11/29 02:56:53;;;;;;;25.50;15.10;;;3.50;99.90;;;;;;5020529;28;20530;-73
2021/11/29 02:59:23;;;;;;;26.13;15.00;;;3.50;99.90;;;;;;5005104;28;20469;-73
2021/11/29 03:01:53;;;;;;;22.60;14.60;;;3.50;99.90;;;;;;5020497;28;20932;-74
2021/11/29 03:04:23;;;;;;;27.40;14.93;;;3.50;99.90;;;;;;5021255;28;20426;-74
2021/11/29 03:06:50;;;;;;;20.20;14.07;;;3.40;99.90;;;;;;5021046;28;20839;-74
2021/11/29 03:09:16;;;;;;;28.43;14.70;;;3.40;99.90;;;;;;5015569;28;20428;-74
2021/11/29 03:11:42;;;;;;;26.57;14.90;;;3.40;99.90;;;;;;5018929;28;20980;-74
2021/11/29 03:14:09;;;;;;;27.43;13.80;;;3.40;99.90;;;;;;5022554;28;20415;-74
2021/11/29 03:16:35;;;;;;;25.00;13.23;;;3.40;99.90;;;;;;5018065;28;20509;-74
2021/11/29 03:19:02;;;;;;;21.23;11.90;;;3.40;99.90;;;;;;5016769;28;20531;-74
2021/11/29 03:21:28;;;;;;;23.20;11.70;;;3.40;99.90;;;;;;5021431;28;20543;-74
2021/11/29 03:23:58;;;;;;;17.60;10.47;;;3.30;99.90;;;;;;5022306;28;20439;-74
2021/11/29 03:26:25;;;;;;;20.70;10.83;;;3.30;99.90;;;;;;5024523;28;20912;-73
2021/11/29 03:28:54;;;;;;;17.50;11.07;;;3.30;99.90;;;;;;5017925;28;20898;-74
2021/11/29 03:31:20;;;;;;;18.53;11.70;;;3.20;99.90;;;;;;5019631;28;20996;-73
2021/11/29 03:33:47;;;;;;;18.53;10.60;;;3.20;99.90;;;;;;5021465;28;20499;-73
2021/11/29 03:36:14;;;;;;;17.10;10.00;;;3.20;99.90;;;;;;5020126;28;21404;-73
2021/11/29 03:38:41;;;;;;;14.07;9.10;;;3.10;99.90;;;;;;5018957;28;20436;-74
2021/11/29 03:41:08;;;;;;;16.80;10.43;;;3.10;99.90;;;;;;5013793;28;20449;-73
2021/11/29 03:43:34;;;;;;;14.80;8.90;;;3.00;99.90;;;;;;5019352;28;20543;-73
2021/11/29 03:46:01;;;;;;;14.10;9.53;;;3.00;99.90;;;;;;5022180;28;20437;-73
2021/11/29 03:48:27;;;;;;;16.20;9.40;;;2.90;99.90;;;;;;5019841;28;20439;-73
2021/11/29 03:50:53;;;;;;;15.13;9.27;;;2.80;99.90;;;;;;5019496;28;20499;-73
2021/11/29 03:53:19;;;;;;;12.90;8.17;;;2.70;99.90;;;;;;5017716;28;20270;-74
2021/11/29 03:55:45;;;;;;;9.50;7.10;;;2.80;99.90;;;;;;5023783;28;20469;-74
2021/11/29 03:58:11;;;;;;;11.40;6.80;;;2.70;99.90;;;;;;5020919;28;20432;-74
2021/11/29 04:00:37;;;;;;;13.37;8.07;;;2.70;99.90;;;;;;5017034;28;20208;-74
2021/11/29 04:03:03;;;;;;;13.87;9.00;;;2.70;99.90;;;;;;5023337;28;20437;-74
2021/11/29 04:05:30;;;;;;;11.23;7.07;;;2.60;99.90;;;;;;5017303;28;20897;-73
2021/11/29 04:07:55;;;;;;;14.80;8.73;;;2.50;99.90;;;;;;5020371;28;21430;-74
2021/11/29 04:10:22;;;;;;;12.60;6.50;;;2.50;99.90;;;;;;5019538;28;20444;-74
2021/11/29 04:12:48;;;;;;;10.97;7.00;;;2.50;99.90;;;;;;5022417;28;20200;-73
2021/11/29 04:15:14;;;;;;;13.57;6.80;;;2.50;99.90;;;;;;5015977;28;20439;-73
2021/11/29 04:17:40;;;;;;;14.10;7.23;;;2.40;99.90;;;;;;5023015;28;20467;-73
2021/11/29 04:20:09;;;;;;;11.40;7.33;;;2.50;99.90;;;;;;5017066;28;20492;-74
2021/11/29 04:22:36;;;;;;;8.80;6.07;;;2.50;99.90;;;;;;5016568;28;20449;-73
2021/11/29 04:25:03;;;;;;;10.50;7.13;;;2.50;99.90;;;;;;5019782;28;20445;-73
2021/11/29 04:27:30;;;;;;;12.57;7.90;;;2.50;99.90;;;;;;5021751;28;20448;-73
2021/11/29 04:29:56;;;;;;;10.07;7.23;;;2.40;99.90;;;;;;5021419;28;20425;-74
2021/11/29 04:32:22;;;;;;;10.30;6.20;;;2.40;99.90;;;;;;5020895;28;20434;-73
2021/11/29 04:34:48;;;;;;;8.93;6.43;;;2.30;99.90;;;;;;5018339;28;20447;-74
2021/11/29 04:37:14;;;;;;;11.53;7.07;;;2.40;99.90;;;;;;5017966;28;20198;-74
2021/11/29 04:39:40;;;;;;;10.20;7.67;;;2.30;99.90;;;;;;5021285;28;20204;-73
2021/11/29 04:42:06;;;;;;;8.27;5.90;;;2.30;99.90;;;;;;5020640;28;20503;-74
2021/11/29 04:44:32;;;;;;;9.80;6.83;;;2.40;99.90;;;;;;5017034;28;20929;-74
2021/11/29 04:46:58;;;;;;;9.30;6.33;;;2.30;99.90;;;;;;5020802;28;20437;-74
2021/11/29 04:49:24;;;;;;;7.37;5.70;;;2.30;99.90;;;;;;5016484;28;20213;-74
2021/11/29 04:51:50;;;;;;;7.80;6.20;;;2.30;99.90;;;;;;5019489;28;20437;-73
2021/11/29 04:54:16;;;;;;;8.73;6.13;;;2.30;99.90;;;;;;5018675;28;20480;-73
2021/11/29 04:56:42;;;;;;;8.87;5.93;;;2.30;99.90;;;;;;5023162;28;20454;-73
2021/11/29 04:59:08;;;;;;;7.87;5.60;;;2.20;99.90;;;;;;5019462;28;20532;-74
2021/11/29 05:01:34;;;;;;;9.70;5.60;;;2.20;99.90;;;;;;5018451;28;20931;-74
2021/11/29 05:04:00;;;;;;;4.70;4.13;;;2.20;99.90;;;;;;5020669;28;20516;-74
2021/11/29 05:06:26;;;;;;;5.33;4.47;;;2.10;99.90;;;;;;5019135;28;20539;-73
2021/11/29 05:08:52;;;;;;;6.87;5.40;;;2.10;99.90;;;;;;5019025;28;20507;-73
2021/11/29 05:11:17;;;;;;;8.40;5.87;;;2.10;99.90;;;;;;5020643;28;20436;-73
2021/11/29 05:13:44;;;;;;;6.43;4.73;;;2.10;99.90;;;;;;5017834;28;20517;-73
2021/11/29 05:16:11;;;;;;;8.33;5.83;;;2.10;99.90;;;;;;5019023;28;20189;-73
2021/11/29 05:18:37;;;;;;;7.57;5.00;;;2.10;99.90;;;;;;5017414;28;20434;-74
2021/11/29 05:21:03;;;;;;;8.00;5.60;;;2.00;99.90;;;;;;5017555;28;20468;-74
2021/11/29 05:23:29;;;;;;;7.63;5.13;;;2.00;99.90;;;;;;5015505;28;20176;-73
2021/11/29 05:25:54;;;;;;;6.27;4.90;;;2.00;99.90;;;;;;5017823;28;20315;-73
2021/11/29 05:28:21;;;;;;;7.50;5.60;;;1.90;99.90;;;;;;5020866;28;20179;-73
2021/11/29 05:30:46;;;;;;;5.10;4.50;;;1.90;99.90;;;;;;5016003;28;20452;-73
2021/11/29 05:33:12;;;;;;;8.27;6.10;;;1.90;99.90;;;;;;5019499;28;20178;-74
2021/11/29 05:35:38;;;;;;;8.47;6.10;;;1.80;99.90;;;;;;5018402;28;20194;-74
2021/11/29 05:38:04;;;;;;;5.93;4.90;;;1.80;99.90;;;;;;5017063;28;20276;-74
2021/11/29 05:40:31;;;;;;;7.37;5.83;;;1.70;99.90;;;;;;5014422;28;20457;-74
2021/11/29 05:42:57;;;;;;;8.60;6.27;;;1.70;99.90;;;;;;5018390;28;20468;-74
2021/11/29 05:45:23;;;;;;;8.53;5.67;;;1.60;99.90;;;;;;5014080;28;20538;-74
2021/11/29 05:47:49;;;;;;;8.27;6.30;;;1.60;99.90;;;;;;5010780;28;20424;-74
2021/11/29 05:50:16;;;;;;;6.77;4.97;;;1.50;99.90;;;;;;5008021;28;20929;-74
2021/11/29 05:52:43;;;;;;;7.20;5.40;;;1.50;99.90;;;;;;5009878;28;20313;-73
2021/11/29 05:55:11;;;;;;;6.40;5.20;;;1.40;99.90;;;;;;5016497;28;20550;-73
2021/11/29 05:57:38;;;;;;;5.53;4.97;;;1.40;99.90;;;;;;5016131;28;20505;-73
2021/11/29 06:00:10;;;;;;;7.50;5.00;;;1.30;99.90;;;;;;5005954;28;20436;-74
2021/11/29 06:02:38;;;;;;;6.87;5.40;;;1.30;99.90;;;;;;5009020;28;20935;-74
2021/11/29 06:05:04;;;;;;;6.40;5.60;;;1.30;99.90;;;;;;5013107;28;20974;-74
2021/11/29 06:07:30;;;;;;;8.47;5.50;;;1.20;99.90;;;;;;5013526;28;20433;-74
2021/11/29 06:09:56;;;;;;;7.40;5.57;;;1.10;99.90;;;;;;5012036;28;20497;-73
2021/11/29 06:12:22;;;;;;;5.33;4.70;;;1.10;99.90;;;;;;5006603;28;20618;-74
2021/11/29 06:14:47;;;;;;;7.43;5.53;;;1.10;99.90;;;;;;5011622;28;20241;-74
2021/11/29 06:17:13;;;;;;;7.80;5.67;;;1.10;99.90;;;;;;5009708;28;20433;-74
2021/11/29 06:19:39;;;;;;;7.90;5.77;;;1.20;99.90;;;;;;5011865;28;20188;-73
2021/11/29 06:22:05;;;;;;;10.27;6.60;;;1.20;99.90;;;;;;5008904;28;20217;-74
2021/11/29 06:24:30;;;;;;;9.07;6.20;;;1.30;99.90;;;;;;5014259;28;20181;-74
2021/11/29 06:26:56;;;;;;;8.50;6.93;;;1.30;99.90;;;;;;5013448;28;20189;-74
2021/11/29 06:29:22;;;;;;;9.00;6.40;;;1.40;99.90;;;;;;5013778;28;20758;-74
2021/11/29 06:31:48;;;;;;;10.20;6.87;;;1.40;99.90;;;;;;5013058;28;20189;-74
2021/11/29 06:34:13;;;;;;;8.03;5.57;;;1.40;99.90;;;;;;4999797;28;20519;-74
2021/11/29 06:36:39;;;;;;;8.10;5.90;;;1.40;99.90;;;;;;5010615;28;20475;-74
2021/11/29 06:39:05;;;;;;;7.17;5.63;;;1.40;99.90;;;;;;5001466;28;20204;-74
2021/11/29 06:41:31;;;;;;;9.53;6.20;;;1.40;99.90;;;;;;5018944;28;20206;-74
2021/11/29 06:43:56;;;;;;;9.23;6.10;;;1.30;99.90;;;;;;5018209;28;20187;-74
2021/11/29 06:46:22;;;;;;;6.73;5.73;;;1.20;99.90;;;;;;5006958;28;20183;-75
2021/11/29 06:48:48;;;;;;;9.50;6.73;;;1.20;99.90;;;;;;5015370;28;20202;-74
2021/11/29 06:51:16;;;;;;;6.80;5.47;;;1.00;99.90;;;;;;5018972;28;20444;-74
2021/11/29 06:53:42;;;;;;;9.63;6.07;;;1.00;99.90;;;;;;5019985;28;20206;-75
2021/11/29 06:56:08;;;;;;;8.77;6.83;;;1.00;99.90;;;;;;5018383;28;20461;-74
2021/11/29 06:58:36;;;;;;;9.27;5.60;;;1.00;99.90;;;;;;5022470;28;20432;-74
2021/11/29 07:01:02;;;;;;;9.50;6.47;;;1.00;99.90;;;;;;5022537;28;20891;-74
2021/11/29 07:03:29;;;;;;;9.80;6.70;;;1.10;99.90;;;;;;5023414;28;20456;-74
2021/11/29 07:05:55;;;;;;;9.90;5.97;;;1.00;99.90;;;;;;5017275;28;20440;-74
2021/11/29 07:08:21;;;;;;;10.20;6.27;;;1.00;99.90;;;;;;5024393;28;20559;-74
2021/11/29 07:10:47;;;;;;;7.60;5.67;;;1.00;99.90;;;;;;5021315;28;20451;-74
2021/11/29 07:13:15;;;;;;;10.50;7.30;;;1.10;99.90;;;;;;5019054;28;20537;-74
2021/11/29 07:15:42;;;;;;;8.80;6.40;;;1.10;99.90;;;;;;5022897;28;20474;-74
2021/11/29 07:18:08;;;;;;;8.70;6.60;;;1.20;99.90;;;;;;5018605;28;20933;-74
2021/11/29 07:20:35;;;;;;;13.30;6.70;;;1.20;99.90;;;;;;5015607;28;20832;-75
2021/11/29 07:23:01;;;;;;;9.40;6.93;;;1.30;99.90;;;;;;5018699;28;20433;-74
2021/11/29 07:25:27;;;;;;;15.70;7.40;;;1.30;99.90;;;;;;5016577;28;20441;-75
2021/11/29 07:27:54;;;;;;;11.00;6.90;;;1.30;99.90;;;;;;5019896;28;20521;-74
2021/11/29 07:30:22;;;;;;;12.63;6.67;;;1.30;99.90;;;;;;5020259;28;20481;-74
2021/11/29 07:32:49;;;;;;;13.43;7.47;;;1.30;99.90;;;;;;5017544;28;20452;-75
2021/11/29 07:35:15;;;;;;;10.50;7.27;;;1.20;99.90;;;;;;5015843;28;20742;-74
2021/11/29 07:37:42;;;;;;;12.70;6.90;;;1.20;99.90;;;;;;5017901;28;20445;-74
2021/11/29 07:40:09;;;;;;;9.97;7.43;;;1.30;99.90;;;;;;5009130;28;20448;-75
2021/11/29 07:42:35;;;;;;;11.33;6.10;;;1.30;99.90;;;;;;5022794;28;20436;-74
2021/11/29 07:45:03;;;;;;;11.70;6.80;;;1.40;99.90;;;;;;5017519;28;20553;-74
2021/11/29 07:47:29;;;;;;;11.47;7.57;;;1.40;99.90;;;;;;5019594;28;20744;-74
2021/11/29 07:49:55;;;;;;;16.13;9.67;;;1.40;99.90;;;;;;5017270;28;20436;-74
2021/11/29 07:52:21;;;;;;;12.80;8.07;;;1.40;99.90;;;;;;5018073;28;20181;-74
2021/11/29 07:54:47;;;;;;;13.30;8.10;;;1.40;99.90;;;;;;5018681;28;20435;-75
2021/11/29 07:57:16;;;;;;;13.43;8.50;;;1.40;99.90;;;;;;5021376;28;20458;-74
2021/11/29 07:59:42;;;;;;;12.50;8.20;;;1.40;99.90;;;;;;5018563;28;20190;-74
2021/11/29 08:02:11;;;;;;;12.27;7.27;;;1.50;99.90;;;;;;5019598;28;20467;-74
2021/11/29 08:04:36;;;;;;;14.17;8.23;;;1.50;99.90;;;;;;5016343;28;20914;-74
2021/11/29 08:07:02;;;;;;;16.87;9.13;;;1.50;99.90;;;;;;5018402;28;20440;-74
2021/11/29 08:09:28;;;;;;;18.87;10.13;;;1.50;99.90;;;;;;5020958;28;20677;-75
2021/11/29 08:11:53;;;;;;;17.63;10.03;;;1.50;99.90;;;;;;5013093;28;20567;-75
2021/11/29 08:14:19;;;;;;;16.20;10.33;;;1.50;99.90;;;;;;5022158;28;20249;-75
2021/11/29 08:16:45;;;;;;;16.00;9.80;;;1.50;99.90;;;;;;5018487;28;20225;-76
2021/11/29 08:19:11;;;;;;;15.63;9.67;;;1.50;99.90;;;;;;5015132;28;20192;-75
2021/11/29 08:21:37;;;;;;;19.60;10.40;;;1.60;99.90;;;;;;5019354;28;20517;-75
2021/11/29 08:24:04;;;;;;;21.80;11.57;;;1.60;99.90;;;;;;5019531;28;20509;-75
2021/11/29 08:26:29;;;;;;;22.33;11.63;;;1.60;99.90;;;;;;5021710;28;20436;-74
2021/11/29 08:28:55;;;;;;;19.43;10.33;;;1.60;99.90;;;;;;5016013;28;20442;-74
2021/11/29 08:31:22;;;;;;;20.43;10.70;;;1.60;99.90;;;;;;5013641;28;20189;-74
2021/11/29 08:33:47;;;;;;;19.93;11.20;;;1.70;99.90;;;;;;5015637;28;20449;-74
2021/11/29 08:36:13;;;;;;;21.67;11.47;;;1.70;99.90;;;;;;5016931;28;20779;-75
2021/11/29 08:38:39;;;;;;;23.87;13.03;;;1.80;99.90;;;;;;5020220;28;20276;-75
2021/11/29 08:41:05;;;;;;;17.60;10.30;;;1.80;99.90;;;;;;5018682;28;20577;-74
2021/11/29 08:43:31;;;;;;;20.33;11.17;;;1.80;99.90;;;;;;5014985;28;20837;-74
2021/11/29 08:45:57;;;;;;;22.07;11.30;;;1.80;99.90;;;;;;5022571;28;20738;-74
2021/11/29 08:48:24;;;;;;;20.20;12.17;;;1.80;99.90;;;;;;5022120;28;20425;-74
2021/11/29 08:50:53;;;;;;;27.43;12.77;;;1.80;99.90;;;;;;5015282;28;20825;-75
2021/11/29 08:53:21;;;;;;;21.63;12.03;;;1.90;99.90;;;;;;5017750;28;20430;-74
2021/11/29 08:55:48;;;;;;;23.90;13.67;;;1.80;99.90;;;;;;5015957;28;20459;-74
2021/11/29 08:58:14;;;;;;;20.00;12.97;;;1.90;99.90;;;;;;5019804;28;20431;-75
2021/11/29 09:00:43;;;;;;;24.33;12.00;;;1.80;99.90;;;;;;5014529;28;20490;-75
2021/11/29 09:03:09;;;;;;;23.47;13.20;;;1.90;99.90;;;;;;5020258;28;20233;-74
2021/11/29 09:05:40;;;;;;;20.90;11.50;;;1.90;99.90;;;;;;5017193;28;20425;-75
2021/11/29 09:08:06;;;;;;;28.93;14.50;;;1.90;99.90;;;;;;5017692;28;20754;-74
2021/11/29 09:10:33;;;;;;;25.70;12.97;;;1.90;99.90;;;;;;5017454;28;20898;-74
2021/11/29 09:12:59;;;;;;;33.57;15.87;;;1.90;99.90;;;;;;5022717;28;20768;-74
2021/11/29 09:15:25;;;;;;;29.40;15.33;;;1.90;99.90;;;;;;5014720;28;20429;-74
2021/11/29 09:17:52;;;;;;;28.30;14.83;;;2.00;99.90;;;;;;5021106;28;20808;-74
2021/11/29 09:20:23;;;;;;;37.13;17.47;;;2.00;99.90;;;;;;5014628;28;20551;-75
2021/11/29 09:22:50;;;;;;;34.47;16.40;;;2.10;99.90;;;;;;5019841;28;20474;-75
2021/11/29 09:25:17;;;;;;;37.00;18.30;;;2.10;99.90;;;;;;5021000;28;20428;-75
2021/11/29 09:27:43;;;;;;;34.87;16.80;;;2.10;99.90;;;;;;5019024;28;20810;-75
2021/11/29 09:30:12;;;;;;;34.27;18.00;;;2.10;99.90;;;;;;5018172;28;20440;-74
2021/11/29 09:32:38;;;;;;;39.80;17.27;;;2.10;99.90;;;;;;5021493;28;20434;-75
2021/11/29 09:35:15;;;;;;;33.20;16.70;;;2.10;99.90;;;;;;5017883;28;20758;-74
2021/11/29 09:37:43;;;;;;;30.70;15.87;;;2.20;99.90;;;;;;5017932;28;20427;-75
2021/11/29 09:40:15;;;;;;;36.53;16.87;;;2.20;99.90;;;;;;5016180;28;20477;-75
2021/11/29 09:42:41;;;;;;;41.50;18.90;;;2.30;99.90;;;;;;5015078;28;20483;-74
2021/11/29 09:45:10;;;;;;;42.50;20.40;;;2.30;99.90;;;;;;5014954;28;20484;-74
2021/11/29 09:47:36;;;;;;;32.70;17.30;;;2.40;99.90;;;;;;5018188;28;20430;-74
2021/11/29 09:50:03;;;;;;;37.40;18.00;;;2.50;99.90;;;;;;5014044;28;20440;-75
2021/11/29 09:52:29;;;;;;;34.53;17.97;;;2.50;99.90;;;;;;5021962;28;20198;-74
2021/11/29 09:54:55;;;;;;;35.73;16.17;;;2.50;99.90;;;;;;5017518;28;20436;-75
2021/11/29 09:57:22;;;;;;;34.33;17.50;;;2.50;99.90;;;;;;5016346;28;20452;-74
2021/11/29 09:59:48;;;;;;;32.00;16.13;;;2.50;99.90;;;;;;5017502;28;20179;-75
2021/11/29 10:02:15;;;;;;;37.50;18.13;;;2.50;99.90;;;;;;5012896;28;20476;-74
2021/11/29 10:04:49;;;;;;;37.37;19.20;;;2.60;99.90;;;;;;5016669;28;20750;-75
2021/11/29 10:07:37;;;;;;;42.10;19.53;;;2.60;99.90;;;;;;5015950;28;20490;-74
2021/11/29 10:10:32;;;;;;;41.37;18.57;;;2.60;99.90;;;;;;5016094;28;20429;-75
2021/11/29 10:13:02;;;;;;;40.87;20.30;;;2.60;99.90;;;;;;5018006;28;20444;-75
2021/11/29 10:15:35;;;;;;;37.43;18.00;;;2.70;99.90;;;;;;5017669;28;20430;-74
2021/11/29 10:18:20;;;;;;;35.20;18.00;;;2.70;99.90;;;;;;5022007;28;20428;-75
2021/11/29 10:21:06;;;;;;;39.80;18.80;;;2.80;99.90;;;;;;5018174;28;20500;-74
2021/11/29 10:23:34;;;;;;;38.03;18.70;;;2.80;99.90;;;;;;5023139;28;20503;-75
2021/11/29 10:26:09;;;;;;;42.80;18.17;;;2.90;99.90;;;;;;5024755;28;20415;-75
2021/11/29 10:28:38;;;;;;;37.70;19.23;;;2.90;99.90;;;;;;5020831;28;20516;-75
2021/11/29 10:31:07;;;;;;;34.83;18.60;;;2.90;99.90;;;;;;5020852;28;20447;-74
2021/11/29 10:33:33;;;;;;;36.33;18.60;;;2.90;99.90;;;;;;5020755;28;20930;-75
2021/11/29 10:36:09;;;;;;;37.83;17.90;;;3.00;99.90;;;;;;5020072;28;20437;-75
2021/11/29 10:38:37;;;;;;;34.63;17.13;;;3.00;99.90;;;;;;5021336;28;20433;-75
2021/11/29 10:41:03;;;;;;;32.67;17.60;;;3.00;99.90;;;;;;5012415;28;20908;-75
2021/11/29 10:43:40;;;;;;;34.33;18.30;;;3.10;99.90;;;;;;5016125;28;20433;-75
2021/11/29 10:46:21;;;;;;;40.57;18.97;;;3.20;99.90;;;;;;5021177;28;20253;-75
2021/11/29 10:48:47;;;;;;;31.80;16.70;;;3.30;99.90;;;;;;5021751;28;20428;-75
2021/11/29 10:51:17;;;;;;;36.77;17.23;;;3.30;99.90;;;;;;5023481;28;20425;-75
2021/11/29 10:53:55;;;;;;;30.00;15.50;;;3.40;99.90;;;;;;5022422;28;20429;-75
2021/11/29 10:56:23;;;;;;;30.27;15.77;;;3.40;99.90;;;;;;5024005;28;20456;-75
2021/11/29 10:58:52;;;;;;;33.73;19.07;;;3.40;99.90;;;;;;5017228;28;20467;-75
2021/11/29 11:01:35;;;;;;;31.53;16.87;;;3.40;99.90;;;;;;5021808;28;20463;-75
2021/11/29 11:04:02;;;;;;;31.30;15.40;;;3.40;99.90;;;;;;5021586;28;20888;-75
2021/11/29 11:06:37;;;;;;;28.67;15.83;;;3.40;99.90;;;;;;5024360;28;20413;-75
2021/11/29 11:09:13;;;;;;;24.77;14.60;;;3.30;99.90;;;;;;5014174;28;20928;-76
2021/11/29 11:11:54;;;;;;;24.07;13.47;;;3.40;99.90;;;;;;5020258;28;20445;-75
2021/11/29 11:14:34;;;;;;;22.70;13.87;;;3.40;99.90;;;;;;5018997;28;20912;-75
2021/11/29 11:17:11;;;;;;;19.97;12.00;;;3.50;99.90;;;;;;5023563;28;20434;-75
2021/11/29 11:19:40;;;;;;;22.20;12.50;;;3.50;99.90;;;;;;5016065;28;20466;-75
2021/11/29 11:22:09;;;;;;;19.43;12.70;;;3.60;99.90;;;;;;5023486;28;20467;-75
2021/11/29 11:24:37;;;;;;;20.00;11.37;;;3.60;99.90;;;;;;5021234;28;20433;-74
2021/11/29 11:27:05;;;;;;;16.67;11.13;;;3.70;99.90;;;;;;5022434;28;20927;-74
2021/11/29 11:29:53;;;;;;;17.07;11.83;;;3.70;99.90;;;;;;5021315;28;20521;-74
2021/11/29 11:32:28;;;;;;;13.33;9.00;;;3.80;99.90;;;;;;5018642;28;20757;-74
2021/11/29 11:34:57;;;;;;;16.80;11.20;;;3.80;99.90;;;;;;5020587;28;20924;-74
2021/11/29 11:37:31;;;;;;;15.33;9.37;;;3.80;99.90;;;;;;5024032;28;20857;-75
2021/11/29 11:39:57;;;;;;;14.77;10.17;;;3.90;99.90;;;;;;5018839;28;20440;-75
2021/11/29 11:42:23;;;;;;;15.67;9.80;;;4.00;99.90;;;;;;5017475;28;21398;-75
2021/11/29 11:44:52;;;;;;;16.50;10.37;;;4.00;99.90;;;;;;5018763;28;21021;-75
2021/11/29 11:47:18;;;;;;;13.77;9.80;;;4.00;99.90;;;;;;5020638;28;20432;-75
2021/11/29 11:49:46;;;;;;;13.20;10.23;;;4.00;99.90;;;;;;5002051;28;20447;-74
2021/11/29 11:52:16;;;;;;;13.23;9.73;;;4.00;99.90;;;;;;5015749;28;20483;-74
2021/11/29 11:54:43;;;;;;;12.87;9.17;;;4.00;99.90;;;;;;5009332;28;20484;-74
2021/11/29 11:57:12;;;;;;;13.20;9.57;;;4.00;99.90;;;;;;5011604;28;20489;-74
2021/11/29 11:59:54;;;;;;;11.13;8.17;;;4.00;99.90;;;;;;5013235;28;20914;-74
2021/11/29 12:02:26;;;;;;;8.93;7.70;;;4.10;99.90;;;;;;5012029;28;20461;-74
2021/11/29 12:05:16;;;;;;;11.90;8.23;;;4.10;99.90;;;;;;5013100;28;20427;-75
2021/11/29 12:07:44;;;;;;;12.33;8.23;;;4.10;99.90;;;;;;5006078;28;20438;-75
2021/11/29 12:10:28;;;;;;;9.10;7.63;;;4.10;99.90;;;;;;5018146;28;20973;-74
2021/11/29 12:13:01;;;;;;;10.13;7.77;;;4.10;99.90;;;;;;5019931;28;20560;-74
2021/11/29 12:15:47;;;;;;;9.87;7.90;;;4.10;99.90;;;;;;5021338;28;20435;-74
2021/11/29 12:18:33;;;;;;;10.93;8.30;;;4.10;99.90;;;;;;5021568;28;20435;-75
2021/11/29 12:21:21;;;;;;;11.33;8.83;;;4.10;99.90;;;;;;5010507;28;20524;-75
2021/11/29 12:24:02;;;;;;;14.40;8.07;;;4.10;99.90;;;;;;5010035;28;20462;-75
2021/11/29 12:26:46;;;;;;;10.90;8.10;;;4.20;99.90;;;;;;5016851;28;20441;-75
2021/11/29 12:29:20;;;;;;;11.30;9.00;;;4.40;99.90;;;;;;5011019;28;20459;-75
2021/11/29 12:31:51;;;;;;;13.43;9.60;;;4.30;99.90;;;;;;5007457;28;20443;-76
2021/11/29 12:34:47;;;;;;;11.73;9.17;;;4.30;99.90;;;;;;5017810;28;20431;-74
2021/11/29 12:37:23;;;;;;;12.63;9.60;;;4.30;99.90;;;;;;5016726;28;20814;-75
2021/11/29 12:39:54;;;;;;;11.80;9.33;;;4.40;99.90;;;;;;5014190;28;20896;-75
2021/11/29 12:42:22;;;;;;;11.40;8.00;;;4.40;99.90;;;;;;5013592;28;20944;-75
2021/11/29 12:44:51;;;;;;;11.90;9.07;;;4.40;99.90;;;;;;5017411;28;20815;-75
2021/11/29 12:47:28;;;;;;;11.50;9.57;;;4.40;99.90;;;;;;5012213;28;20447;-75